Time;durP1;ratioP1;P1;durP2;ratioP2;P2;SDS_P1;SDS_P2;PMS_P1;PMS_P2;Temp;Humidity;BMP_temperature;BMP_pressure;BME280_temperature;BME280_humidity;BME280_pressure;Samples;Min_cycle;Max_cycle;Signal;HPM_P1;HPM_P2
2022/06/09 00:02:23;;;;;;;47.60;27.42;;;14.70;99.90;;;;;;5050142;28;20482;-66
2022/06/09 00:04:49;;;;;;;64.00;28.73;;;14.70;99.90;;;;;;5063971;28;20478;-66
2022/06/09 00:07:21;;;;;;;53.38;28.67;;;14.70;99.90;;;;;;5056516;28;20414;-66
2022/06/09 00:10:00;;;;;;;52.88;29.95;;;14.70;99.90;;;;;;5062034;28;20048;-66
2022/06/09 00:12:27;;;;;;;64.78;31.20;;;14.70;99.90;;;;;;5049778;28;20124;-66
2022/06/09 00:14:56;;;;;;;54.97;28.15;;;14.70;99.90;;;;;;5060704;28;20048;-67
2022/06/09 00:17:22;;;;;;;59.42;30.80;;;14.70;99.90;;;;;;5060255;28;20053;-66
2022/06/09 00:19:48;;;;;;;61.28;30.90;;;14.70;99.90;;;;;;5052351;28;20068;-66
2022/06/09 00:22:14;;;;;;;77.43;31.67;;;14.70;99.90;;;;;;5059310;28;20489;-66
2022/06/09 00:24:39;;;;;;;61.38;31.58;;;14.70;99.90;;;;;;5054762;28;20075;-66
2022/06/09 00:27:05;;;;;;;55.75;29.13;;;14.70;99.90;;;;;;5049652;28;20102;-66
2022/06/09 00:29:31;;;;;;;53.05;30.88;;;14.70;99.90;;;;;;5050147;28;20037;-66
2022/06/09 00:31:56;;;;;;;58.22;28.80;;;14.70;99.90;;;;;;5063912;28;20044;-66
2022/06/09 00:34:22;;;;;;;65.28;29.63;;;14.70;99.90;;;;;;5051050;28;20037;-66
2022/06/09 00:36:48;;;;;;;50.08;26.23;;;14.70;99.90;;;;;;5063342;28;20547;-66
2022/06/09 00:39:13;;;;;;;63.05;31.45;;;14.70;99.90;;;;;;5059776;28;20049;-66
2022/06/09 00:41:42;;;;;;;54.63;29.10;;;14.70;99.90;;;;;;5068098;28;20401;-66
2022/06/09 00:44:20;;;;;;;55.88;30.08;;;14.70;99.90;;;;;;5052318;28;20490;-66
2022/06/09 00:46:54;;;;;;;78.55;33.60;;;14.70;99.90;;;;;;5054303;28;20044;-66
2022/06/09 00:49:37;;;;;;;58.88;31.13;;;14.70;99.90;;;;;;5050744;28;20095;-66
2022/06/09 00:52:06;;;;;;;61.88;28.25;;;14.70;99.90;;;;;;5051459;28;20083;-66
2022/06/09 00:54:38;;;;;;;60.33;29.23;;;14.70;99.90;;;;;;5050412;28;20041;-66
2022/06/09 00:57:11;;;;;;;51.28;28.40;;;14.70;99.90;;;;;;5051831;28;20165;-66
2022/06/09 00:59:38;;;;;;;64.47;26.08;;;14.70;99.90;;;;;;5065044;28;20040;-66
2022/06/09 01:02:07;;;;;;;56.30;29.80;;;14.70;99.90;;;;;;5068156;28;20072;-66
2022/06/09 01:04:33;;;;;;;63.55;30.63;;;14.70;99.90;;;;;;5062094;28;20475;-66
2022/06/09 01:07:09;;;;;;;53.70;26.38;;;14.70;99.90;;;;;;5065839;28;20127;-66
2022/06/09 01:09:35;;;;;;;61.08;26.30;;;14.70;99.90;;;;;;5064222;28;20128;-66
2022/06/09 01:12:01;;;;;;;61.72;25.50;;;14.70;99.90;;;;;;5058888;28;20104;-66
2022/06/09 01:14:29;;;;;;;62.95;25.65;;;14.60;99.90;;;;;;5054987;28;20836;-66
2022/06/09 01:17:25;;;;;;;53.42;22.73;;;14.60;99.90;;;;;;5055494;28;20041;-66
2022/06/09 01:19:59;;;;;;;48.97;24.00;;;14.60;99.90;;;;;;5053239;28;20048;-66
2022/06/09 01:22:44;;;;;;;51.83;24.83;;;14.60;99.90;;;;;;5059815;28;20421;-66
2022/06/09 01:25:12;;;;;;;52.85;24.70;;;14.60;99.90;;;;;;5056683;28;20076;-66
2022/06/09 01:28:11;;;;;;;47.67;23.25;;;14.60;99.90;;;;;;5049903;28;20044;-66
2022/06/09 01:30:49;;;;;;;60.75;24.52;;;14.50;99.90;;;;;;5048142;28;20127;-66
2022/06/09 01:33:40;;;;;;;56.97;24.83;;;14.50;99.90;;;;;;5061423;28;20536;-66
2022/06/09 01:36:12;;;;;;;46.50;22.85;;;14.50;99.90;;;;;;5050028;28;20060;-66
2022/06/09 01:38:49;;;;;;;59.75;24.50;;;14.50;99.90;;;;;;5050744;28;20041;-66
2022/06/09 01:41:22;;;;;;;55.47;24.52;;;14.50;99.90;;;;;;5063860;28;20045;-66
2022/06/09 01:43:51;;;;;;;57.05;25.00;;;14.50;99.90;;;;;;5052320;28;20041;-66
2022/06/09 01:46:23;;;;;;;58.67;22.10;;;14.40;99.90;;;;;;5048683;28;20045;-66
2022/06/09 01:48:53;;;;;;;62.08;24.90;;;14.40;99.90;;;;;;5053703;28;20155;-66
2022/06/09 01:51:21;;;;;;;44.33;22.15;;;14.50;99.90;;;;;;5051058;28;20411;-66
2022/06/09 01:53:55;;;;;;;68.68;28.27;;;14.50;99.90;;;;;;5048091;28;20053;-66
2022/06/09 01:56:28;;;;;;;50.63;25.58;;;14.40;99.90;;;;;;5051810;28;20036;-66
2022/06/09 01:58:58;;;;;;;61.78;26.42;;;14.50;99.90;;;;;;5058159;28;20120;-66
2022/06/09 02:01:30;;;;;;;53.60;25.70;;;14.50;99.90;;;;;;5054085;28;20199;-66
2022/06/09 02:04:00;;;;;;;69.65;25.95;;;14.40;99.90;;;;;;5058011;28;20079;-66
2022/06/09 02:06:27;;;;;;;56.25;27.67;;;14.40;99.90;;;;;;5058196;28;20052;-66
2022/06/09 02:08:53;;;;;;;66.32;25.92;;;14.40;99.90;;;;;;5053305;28;20058;-66
2022/06/09 02:11:19;;;;;;;65.57;29.33;;;14.40;99.90;;;;;;5048957;28;20041;-66
2022/06/09 02:13:51;;;;;;;63.10;29.52;;;14.40;99.90;;;;;;5048400;28;20401;-66
2022/06/09 02:16:21;;;;;;;61.40;27.55;;;14.40;99.90;;;;;;5055903;28;20075;-66
2022/06/09 02:18:52;;;;;;;58.85;29.88;;;14.40;99.90;;;;;;5050110;28;20045;-66
2022/06/09 02:21:26;;;;;;;56.72;29.45;;;14.40;99.90;;;;;;5056686;28;20047;-66
2022/06/09 02:23:53;;;;;;;47.40;24.70;;;14.30;99.90;;;;;;5056466;28;20049;-66
2022/06/09 02:26:19;;;;;;;61.35;28.85;;;14.40;99.90;;;;;;5049476;28;20052;-66
2022/06/09 02:28:45;;;;;;;58.88;26.48;;;14.30;99.90;;;;;;5047783;28;20037;-66
2022/06/09 02:31:11;;;;;;;57.67;27.15;;;14.30;99.90;;;;;;5063060;28;20048;-66
2022/06/09 02:33:37;;;;;;;59.63;28.60;;;14.30;99.90;;;;;;5059805;28;20488;-66
2022/06/09 02:36:03;;;;;;;44.08;24.25;;;14.20;99.90;;;;;;5053673;28;20041;-66
2022/06/09 02:38:28;;;;;;;59.22;25.50;;;14.10;99.90;;;;;;5065835;28;20123;-66
2022/06/09 02:40:56;;;;;;;47.70;24.40;;;14.10;99.90;;;;;;5059745;28;20044;-65
2022/06/09 02:43:23;;;;;;;46.38;25.88;;;14.10;99.90;;;;;;5054403;28;20033;-65
2022/06/09 02:45:50;;;;;;;50.95;27.52;;;14.10;99.90;;;;;;5061906;28;20059;-65
2022/06/09 02:48:17;;;;;;;57.53;25.57;;;14.10;99.90;;;;;;5052465;28;20040;-66
2022/06/09 02:50:44;;;;;;;64.72;29.13;;;14.00;99.90;;;;;;5058753;28;20040;-65
2022/06/09 02:53:09;;;;;;;49.13;24.58;;;14.10;99.90;;;;;;5056576;28;20075;-66
2022/06/09 02:55:36;;;;;;;56.80;26.73;;;14.00;99.90;;;;;;5065556;28;20053;-66
2022/06/09 02:58:02;;;;;;;60.88;27.70;;;14.00;99.90;;;;;;5063671;28;20413;-66
2022/06/09 03:00:28;;;;;;;69.07;28.65;;;14.00;99.90;;;;;;5052196;28;20041;-66
2022/06/09 03:02:57;;;;;;;60.58;29.70;;;13.90;99.90;;;;;;5051122;28;20046;-66
2022/06/09 03:05:26;;;;;;;74.70;30.67;;;14.00;99.90;;;;;;5052690;28;20041;-66
2022/06/09 03:07:51;;;;;;;62.35;30.65;;;14.00;99.90;;;;;;5059321;28;20040;-66
2022/06/09 03:10:17;;;;;;;82.57;36.35;;;13.90;99.90;;;;;;5056471;28;20391;-66
2022/06/09 03:12:43;;;;;;;72.63;34.00;;;14.00;99.90;;;;;;5052390;28;20045;-66
2022/06/09 03:15:12;;;;;;;52.40;28.85;;;13.90;99.90;;;;;;5062356;28;20529;-66
2022/06/09 03:17:38;;;;;;;63.42;31.27;;;13.90;99.90;;;;;;5056277;28;20101;-66
2022/06/09 03:20:06;;;;;;;60.03;32.75;;;13.90;99.90;;;;;;5059307;28;20815;-66
2022/06/09 03:22:32;;;;;;;50.95;27.83;;;13.90;99.90;;;;;;5064914;28;20112;-66
2022/06/09 03:24:59;;;;;;;53.90;28.48;;;13.80;99.90;;;;;;5060134;28;20053;-66
2022/06/09 03:27:25;;;;;;;72.05;29.50;;;13.80;99.90;;;;;;5050903;28;20130;-66
2022/06/09 03:29:51;;;;;;;51.92;24.10;;;13.80;99.90;;;;;;5055297;28;20082;-66
2022/06/09 03:32:16;;;;;;;52.30;26.13;;;13.80;99.90;;;;;;5055417;28;20131;-66
2022/06/09 03:34:42;;;;;;;49.72;23.88;;;13.80;99.90;;;;;;5053288;28;20040;-66
2022/06/09 03:37:08;;;;;;;50.00;24.08;;;13.80;99.90;;;;;;5050967;28;20056;-66
2022/06/09 03:39:34;;;;;;;47.85;25.00;;;13.80;99.90;;;;;;5051222;28;20056;-66
2022/06/09 03:42:00;;;;;;;50.70;24.52;;;13.70;99.90;;;;;;5052327;28;20167;-66
2022/06/09 03:44:26;;;;;;;34.15;22.33;;;13.70;99.90;;;;;;5060676;28;20131;-66
2022/06/09 03:46:51;;;;;;;49.75;23.75;;;13.70;99.90;;;;;;5055828;28;20128;-66
2022/06/09 03:49:17;;;;;;;48.90;22.52;;;13.70;99.90;;;;;;5059164;28;20547;-66
2022/06/09 03:51:43;;;;;;;45.63;24.33;;;13.70;99.90;;;;;;5062630;28;20040;-66
2022/06/09 03:54:08;;;;;;;63.70;23.85;;;13.60;99.90;;;;;;5062531;28;20041;-66
2022/06/09 03:56:35;;;;;;;42.45;23.35;;;13.60;99.90;;;;;;5055034;28;20077;-66
2022/06/09 03:59:01;;;;;;;30.33;20.48;;;13.60;99.90;;;;;;5049770;28;20084;-66
2022/06/09 04:01:26;;;;;;;40.63;23.52;;;13.60;99.90;;;;;;5050039;28;20092;-66
2022/06/09 04:03:52;;;;;;;43.53;21.40;;;13.60;99.90;;;;;;5055089;28;20478;-66
2022/06/09 04:06:23;;;;;;;39.85;20.20;;;13.60;99.90;;;;;;5050784;28;20051;-66
2022/06/09 04:08:50;;;;;;;34.08;20.05;;;13.60;99.90;;;;;;5058967;28;20047;-66
2022/06/09 04:11:17;;;;;;;35.78;19.40;;;13.60;99.90;;;;;;5058464;28;20040;-66
2022/06/09 04:13:43;;;;;;;37.35;21.48;;;13.50;99.90;;;;;;5035521;28;20060;-66
2022/06/09 04:16:21;;;;;;;39.10;20.27;;;13.60;99.90;;;;;;5058299;28;20484;-66
2022/06/09 04:18:47;;;;;;;45.08;20.70;;;13.50;99.90;;;;;;5055765;28;20028;-66
2022/06/09 04:21:12;;;;;;;41.35;20.58;;;13.50;99.90;;;;;;5064370;28;20044;-66
2022/06/09 04:23:38;;;;;;;41.72;22.77;;;13.50;99.90;;;;;;5056878;28;20514;-66
2022/06/09 04:26:04;;;;;;;51.28;23.95;;;13.50;99.90;;;;;;5053163;28;20048;-66
2022/06/09 04:28:29;;;;;;;38.75;20.98;;;13.50;99.90;;;;;;5049527;28;20431;-66
2022/06/09 04:30:55;;;;;;;56.38;24.65;;;13.60;99.90;;;;;;5047507;28;20052;-66
2022/06/09 04:33:21;;;;;;;43.42;24.05;;;13.60;99.90;;;;;;5048813;28;20040;-66
2022/06/09 04:35:46;;;;;;;47.17;23.15;;;13.60;99.90;;;;;;5054075;28;20545;-66
2022/06/09 04:38:12;;;;;;;51.15;25.90;;;13.60;99.90;;;;;;5051514;28;20397;-66
2022/06/09 04:40:41;;;;;;;42.75;22.65;;;13.60;99.90;;;;;;5049831;28;20076;-66
2022/06/09 04:43:08;;;;;;;;;;;13.60;99.90;;;;;;5069020;28;20089;-66
2022/06/09 04:45:35;;;;;;;53.50;24.70;;;13.60;99.90;;;;;;5051570;28;19931;-66
2022/06/09 04:48:01;;;;;;;50.88;25.92;;;13.60;99.90;;;;;;5049480;28;20044;-66
2022/06/09 04:50:26;;;;;;;56.50;25.92;;;13.70;99.90;;;;;;5056203;28;20040;-66
2022/06/09 04:52:52;;;;;;;42.00;25.17;;;13.70;99.90;;;;;;5048791;28;20075;-67
2022/06/09 04:55:18;;;;;;;57.88;26.35;;;13.70;99.90;;;;;;5051792;28;20057;-67
2022/06/09 04:57:44;;;;;;;54.53;28.02;;;13.70;99.90;;;;;;5051693;28;20056;-67
2022/06/09 05:00:13;;;;;;;45.80;27.80;;;13.80;99.90;;;;;;5053957;28;20044;-67
2022/06/09 05:02:39;;;;;;;66.00;28.13;;;13.80;99.90;;;;;;5053860;28;20047;-67
2022/06/09 05:05:07;;;;;;;46.55;27.52;;;13.90;99.90;;;;;;5061234;28;20771;-67
2022/06/09 05:07:32;;;;;;;54.17;26.43;;;13.90;99.90;;;;;;5052419;28;20044;-67
2022/06/09 05:09:58;;;;;;;54.08;26.58;;;13.90;99.90;;;;;;5050213;28;20048;-68
2022/06/09 05:12:24;;;;;;;40.38;25.10;;;13.90;99.90;;;;;;5049747;28;20097;-68
2022/06/09 05:14:51;;;;;;;40.65;22.67;;;14.00;99.90;;;;;;5054757;28;20045;-67
2022/06/09 05:17:18;;;;;;;37.78;24.05;;;14.00;99.90;;;;;;5050194;28;20045;-67
2022/06/09 05:19:45;;;;;;;44.10;21.98;;;14.10;99.90;;;;;;5051039;28;20509;-67
2022/06/09 05:22:11;;;;;;;51.28;25.67;;;14.00;99.90;;;;;;5055116;28;20041;-68
2022/06/09 05:24:36;;;;;;;50.70;25.23;;;14.00;99.90;;;;;;5049015;28;20048;-67
2022/06/09 05:27:02;;;;;;;37.55;24.77;;;14.00;99.90;;;;;;5058415;28;20040;-67
2022/06/09 05:29:28;;;;;;;47.75;28.05;;;14.10;99.90;;;;;;5051571;28;20040;-68
2022/06/09 05:31:54;;;;;;;52.33;27.40;;;14.10;99.90;;;;;;5059563;28;20075;-69
2022/06/09 05:34:21;;;;;;;53.25;30.35;;;14.10;99.90;;;;;;5051515;28;20387;-68
2022/06/09 05:36:47;;;;;;;54.03;32.05;;;14.10;99.90;;;;;;5051100;28;20060;-68
2022/06/09 05:44:56;;;;;;;44.72;30.25;;;14.20;99.90;;;;;;5060803;28;20047;-69
2022/06/09 05:47:23;;;;;;;57.05;33.58;;;14.20;99.90;;;;;;5048182;28;20456;-69
2022/06/09 05:49:51;;;;;;;46.78;30.20;;;14.20;99.90;;;;;;5049866;28;20098;-68
2022/06/09 05:52:20;;;;;;;46.75;32.03;;;14.20;99.90;;;;;;5051002;28;20052;-69
2022/06/09 05:54:45;;;;;;;;;;;14.20;99.90;;;;;;5058274;28;20041;-69
2022/06/09 05:57:11;;;;;;;53.90;31.83;;;14.20;99.90;;;;;;5058541;28;20026;-69
2022/06/09 05:59:37;;;;;;;55.78;29.33;;;14.20;99.90;;;;;;5055897;28;20044;-68
2022/06/09 06:02:05;;;;;;;54.35;31.98;;;14.30;99.90;;;;;;5064259;28;20056;-68
2022/06/09 06:04:31;;;;;;;51.00;32.13;;;14.30;99.90;;;;;;5055616;28;20032;-68
2022/06/09 06:06:57;;;;;;;56.95;32.42;;;14.30;99.90;;;;;;5056294;28;20512;-68
2022/06/09 06:09:23;;;;;;;52.30;31.27;;;14.30;99.90;;;;;;5050572;28;20033;-68
2022/06/09 06:11:49;;;;;;;49.95;32.35;;;14.30;99.90;;;;;;5054524;28;20110;-68
2022/06/09 06:14:16;;;;;;;53.58;32.45;;;14.30;99.90;;;;;;5053004;28;20080;-68
2022/06/09 06:16:42;;;;;;;57.58;33.55;;;14.30;99.90;;;;;;5067010;28;20040;-68
2022/06/09 06:19:10;;;;;;;53.70;33.70;;;14.30;99.90;;;;;;5064256;28;20052;-68
2022/06/09 06:21:36;;;;;;;;;;;14.30;99.90;;;;;;5052230;28;20040;-68
2022/06/09 06:24:03;;;;;;;49.63;31.83;;;14.30;99.90;;;;;;5058556;28;19920;-68
2022/06/09 06:26:29;;;;;;;51.63;33.25;;;14.30;99.90;;;;;;5053921;28;20485;-68
2022/06/09 06:28:55;;;;;;;53.55;31.77;;;14.40;99.90;;;;;;5051535;28;20111;-68
2022/06/09 06:31:21;;;;;;;53.08;34.50;;;14.40;99.90;;;;;;5047370;28;20064;-68
2022/06/09 06:33:49;;;;;;;46.55;32.08;;;14.50;99.90;;;;;;5052701;28;20492;-68
2022/06/09 06:36:14;;;;;;;57.97;35.00;;;14.50;99.90;;;;;;5051070;28;20146;-68
2022/06/09 06:38:40;;;;;;;58.17;33.22;;;14.60;99.90;;;;;;5048348;28;20037;-69
2022/06/09 06:41:08;;;;;;;59.55;35.88;;;14.60;99.90;;;;;;5058037;28;20405;-68
2022/06/09 06:43:34;;;;;;;57.93;35.47;;;14.80;99.90;;;;;;5049852;28;20052;-68
2022/06/09 06:46:01;;;;;;;52.53;33.35;;;14.90;99.90;;;;;;5053010;28;20390;-68
2022/06/09 06:48:27;;;;;;;56.80;36.72;;;15.10;99.90;;;;;;5063021;28;20041;-68
2022/06/09 06:50:52;;;;;;;50.00;34.00;;;15.20;99.90;;;;;;5054739;28;20400;-68
2022/06/09 06:53:18;;;;;;;53.08;32.67;;;15.30;99.90;;;;;;5063489;28;20131;-68
2022/06/09 06:55:44;;;;;;;59.10;32.50;;;15.40;99.90;;;;;;5063938;28;20044;-68
2022/06/09 06:58:10;;;;;;;45.35;33.22;;;15.60;99.90;;;;;;5052270;28;20056;-68
2022/06/09 07:00:37;;;;;;;54.63;33.75;;;15.60;99.90;;;;;;5048379;28;20120;-68
2022/06/09 07:03:03;;;;;;;41.97;30.17;;;15.70;99.90;;;;;;5066889;28;20037;-68
2022/06/09 07:05:29;;;;;;;52.83;32.45;;;15.80;99.90;;;;;;5032180;28;20045;-68
2022/06/09 07:07:56;;;;;;;47.58;30.55;;;16.00;99.90;;;;;;5054537;28;20102;-69
2022/06/09 07:10:23;;;;;;;50.45;33.78;;;16.00;99.90;;;;;;5056220;28;20153;-68
2022/06/09 07:12:48;;;;;;;43.80;30.02;;;16.10;99.90;;;;;;5051569;28;20490;-68
2022/06/09 07:15:15;;;;;;;41.60;28.67;;;16.10;99.90;;;;;;5052859;28;20044;-68
2022/06/09 07:17:41;;;;;;;46.35;27.85;;;16.20;99.90;;;;;;5053558;28;20049;-68
2022/06/09 07:20:09;;;;;;;37.65;27.63;;;16.40;99.90;;;;;;5058813;28;20489;-68
2022/06/09 07:22:35;;;;;;;39.28;28.45;;;16.60;99.90;;;;;;5054027;28;20498;-69
2022/06/09 07:25:01;;;;;;;44.08;29.15;;;16.70;99.90;;;;;;5050834;28;20083;-69
2022/06/09 07:27:27;;;;;;;42.75;28.00;;;16.90;99.90;;;;;;5052932;28;20045;-69
2022/06/09 07:29:53;;;;;;;44.08;27.88;;;17.10;99.90;;;;;;5055991;28;20106;-69
2022/06/09 07:32:19;;;;;;;36.67;25.60;;;17.10;99.90;;;;;;5052766;28;20041;-69
2022/06/09 07:34:45;;;;;;;29.40;22.15;;;17.20;99.90;;;;;;5060602;28;20081;-69
2022/06/09 07:37:12;;;;;;;31.08;22.98;;;17.30;99.90;;;;;;5051793;28;20072;-69
2022/06/09 07:39:37;;;;;;;26.23;21.27;;;17.50;99.90;;;;;;5069338;28;20183;-69
2022/06/09 07:42:04;;;;;;;25.95;19.85;;;17.60;99.90;;;;;;5052569;28;20128;-69
2022/06/09 07:44:30;;;;;;;27.27;19.88;;;17.60;99.90;;;;;;5060695;28;20093;-70
2022/06/09 07:46:55;;;;;;;27.33;19.63;;;17.80;99.90;;;;;;5059000;28;20060;-69
2022/06/09 07:49:21;;;;;;;28.92;19.50;;;18.00;99.90;;;;;;5062231;28;20533;-69
2022/06/09 07:51:47;;;;;;;23.63;17.58;;;18.10;99.90;;;;;;5057249;28;20077;-70
2022/06/09 07:54:13;;;;;;;21.45;17.70;;;18.30;99.90;;;;;;5059245;28;20049;-70
2022/06/09 07:56:39;;;;;;;22.98;16.63;;;18.50;99.90;;;;;;5063201;28;20046;-70
2022/06/09 07:59:08;;;;;;;22.40;16.15;;;18.60;99.90;;;;;;5059741;28;20045;-70
2022/06/09 08:01:35;;;;;;;19.23;15.63;;;18.70;99.90;;;;;;5060899;28;20090;-71
2022/06/09 08:04:02;;;;;;;22.38;17.42;;;18.60;99.90;;;;;;5057831;28;20782;-71
2022/06/09 08:06:28;;;;;;;26.60;16.13;;;18.60;99.90;;;;;;5060766;28;20036;-71
2022/06/09 08:08:57;;;;;;;21.65;14.38;;;18.90;99.90;;;;;;5056908;28;20087;-71
2022/06/09 08:11:23;;;;;;;18.17;15.00;;;19.10;99.90;;;;;;5062114;28;20067;-70
2022/06/09 08:13:49;;;;;;;31.73;16.80;;;19.40;99.90;;;;;;5062200;28;20036;-69
2022/06/09 08:16:15;;;;;;;18.13;13.18;;;19.50;99.90;;;;;;5051319;28;20068;-71
2022/06/09 08:18:40;;;;;;;14.60;12.13;;;19.60;99.90;;;;;;5049439;28;20053;-71
2022/06/09 08:21:07;;;;;;;15.25;12.02;;;19.90;99.90;;;;;;5051474;28;20051;-71
2022/06/09 08:23:33;;;;;;;12.55;10.43;;;20.10;99.90;;;;;;5050775;28;20619;-70
2022/06/09 08:25:59;;;;;;;9.95;8.95;;;20.30;99.90;;;;;;5053282;28;20049;-69
2022/06/09 08:28:26;;;;;;;11.55;9.35;;;20.50;99.90;;;;;;5057466;28;20814;-69
2022/06/09 08:30:55;;;;;;;17.73;8.70;;;20.50;99.90;;;;;;5057527;28;20048;-69
2022/06/09 08:33:23;;;;;;;13.40;10.85;;;20.60;99.90;;;;;;5061981;28;20055;-69
2022/06/09 08:35:49;;;;;;;16.60;11.88;;;20.70;99.90;;;;;;5064238;28;20041;-69
2022/06/09 08:38:15;;;;;;;13.80;10.23;;;20.60;99.90;;;;;;5066721;28;20048;-70
2022/06/09 08:41:01;;;;;;;10.45;9.38;;;20.70;99.90;;;;;;5066460;28;20128;-71
2022/06/09 08:43:40;;;;;;;10.10;8.50;;;20.90;99.90;;;;;;5058509;28;20160;-69
2022/06/09 08:46:15;;;;;;;9.05;7.63;;;21.00;99.90;;;;;;5050512;28;20091;-68
2022/06/09 08:48:43;;;;;;;8.98;7.35;;;21.30;99.90;;;;;;5061729;28;20039;-68
2022/06/09 08:51:20;;;;;;;8.25;6.90;;;21.40;99.90;;;;;;5066442;28;20032;-68
2022/06/09 08:53:48;;;;;;;15.18;7.22;;;21.40;99.90;;;;;;5057981;28;20045;-67
2022/06/09 08:56:26;;;;;;;13.95;6.47;;;21.40;99.90;;;;;;5059473;28;20041;-67
2022/06/09 08:58:59;;;;;;;8.90;6.22;;;21.40;99.90;;;;;;5064047;28;20057;-67
2022/06/09 09:01:47;;;;;;;7.43;6.07;;;21.30;99.90;;;;;;5059428;28;20117;-67
2022/06/09 09:04:40;;;;;;;11.50;7.20;;;21.20;99.90;;;;;;5062164;28;20090;-66
2022/06/09 09:07:30;;;;;;;7.20;5.72;;;21.20;99.90;;;;;;5059764;28;20106;-66
2022/06/09 09:10:23;;;;;;;10.02;5.05;;;21.30;99.90;;;;;;5063519;28;20063;-66
2022/06/09 09:13:22;;;;;;;8.50;4.78;;;21.40;99.90;;;;;;5060305;28;20051;-66
2022/06/09 09:16:09;;;;;;;7.45;5.38;;;21.60;99.90;;;;;;5036761;28;20060;-66
2022/06/09 09:18:55;;;;;;;6.07;4.37;;;21.70;99.90;;;;;;5052758;28;20078;-66
2022/06/09 09:21:27;;;;;;;6.03;4.05;;;21.70;99.90;;;;;;5057447;28;20119;-66
2022/06/09 09:24:18;;;;;;;6.38;5.03;;;21.80;99.90;;;;;;5063122;28;20044;-66
2022/06/09 09:26:55;;;;;;;5.28;4.05;;;22.00;99.90;;;;;;5064376;28;20546;-66
2022/06/09 09:29:34;;;;;;;26.02;4.70;;;22.00;99.90;;;;;;5066114;28;20170;-67
2022/06/09 09:32:05;;;;;;;9.88;4.97;;;22.00;99.90;;;;;;5060343;28;20044;-66
2022/06/09 09:34:38;;;;;;;8.23;4.13;;;22.10;99.90;;;;;;5057256;28;20560;-66
2022/06/09 09:37:35;;;;;;;8.10;4.30;;;22.10;99.90;;;;;;5059667;28;20047;-66
2022/06/09 09:40:15;;;;;;;4.15;3.72;;;22.10;99.90;;;;;;5062210;28;20103;-67
2022/06/09 09:42:43;;;;;;;5.28;4.20;;;22.30;99.90;;;;;;5050531;28;20115;-66
2022/06/09 09:45:11;;;;;;;9.60;4.20;;;22.30;99.90;;;;;;5048271;28;20132;-66
2022/06/09 09:47:58;;;;;;;5.82;4.13;;;22.10;99.90;;;;;;5058125;28;20056;-67
2022/06/09 09:50:30;;;;;;;10.00;4.75;;;22.10;99.90;;;;;;5058590;28;20116;-66
2022/06/09 09:52:59;;;;;;;5.93;4.07;;;22.00;99.90;;;;;;5053315;28;20058;-66
2022/06/09 09:55:29;;;;;;;7.82;4.18;;;22.10;99.90;;;;;;5056677;28;20168;-67
2022/06/09 09:58:19;;;;;;;9.07;4.72;;;22.20;99.90;;;;;;5055656;28;20115;-67
2022/06/09 10:00:47;;;;;;;10.90;3.58;;;22.50;99.90;;;;;;5054161;28;20059;-67
2022/06/09 10:09:32;;;;;;;9.40;3.85;;;22.90;99.90;;;;;;5062941;28;20119;-66
2022/06/09 10:12:06;;;;;;;4.78;3.72;;;22.70;99.90;;;;;;5058283;28;20045;-66
2022/06/09 10:14:55;;;;;;;10.00;4.80;;;22.80;99.90;;;;;;5059021;28;20116;-66
2022/06/09 10:17:48;;;;;;;8.40;3.90;;;22.70;99.90;;;;;;5055859;28;20474;-66
2022/06/09 10:20:14;;;;;;;9.85;4.28;;;22.30;99.90;;;;;;5059420;28;20121;-66
2022/06/09 10:22:54;;;;;;;11.02;3.95;;;22.20;99.90;;;;;;5065998;28;20078;-66
2022/06/09 10:25:33;;;;;;;12.27;4.53;;;22.10;99.90;;;;;;5055287;28;20044;-66
2022/06/09 10:28:21;;;;;;;8.60;4.65;;;21.90;99.90;;;;;;5063158;28;20040;-66
2022/06/09 10:30:59;;;;;;;11.45;4.85;;;21.60;99.90;;;;;;5057270;28;20174;-66
2022/06/09 10:33:31;;;;;;;4.55;3.22;;;21.30;99.90;;;;;;5059819;28;20136;-68
2022/06/09 10:36:08;;;;;;;10.40;4.15;;;21.40;99.90;;;;;;5049509;28;20045;-68
2022/06/09 10:38:47;;;;;;;9.50;4.70;;;21.40;99.90;;;;;;5050571;28;20037;-66
2022/06/09 10:41:28;;;;;;;8.30;4.53;;;21.30;99.90;;;;;;5058030;28;20102;-68
2022/06/09 10:44:08;;;;;;;7.88;4.43;;;21.50;99.90;;;;;;5053981;28;20040;-66
2022/06/09 10:56:34;;;;;;;8.70;4.35;;;22.40;99.90;;;;;;5050140;28;20049;-66
2022/06/09 10:59:07;;;;;;;7.70;3.35;;;22.50;99.90;;;;;;4981578;28;20121;-66
2022/06/09 11:01:34;;;;;;;7.43;3.40;;;22.60;99.90;;;;;;4981362;28;20046;-66
2022/06/09 11:04:03;;;;;;;12.40;4.40;;;22.60;99.90;;;;;;5021915;28;20131;-68
2022/06/09 11:06:35;;;;;;;14.50;3.50;;;22.60;99.90;;;;;;5059140;28;20037;-66
2022/06/09 11:09:20;;;;;;;8.05;4.32;;;22.60;99.90;;;;;;5062270;28;20143;-66
2022/06/09 11:12:13;;;;;;;8.70;4.57;;;22.40;99.90;;;;;;5058093;28;20037;-67
2022/06/09 11:15:16;;;;;;;11.27;5.15;;;22.40;99.90;;;;;;5062406;28;20040;-66
2022/06/09 11:18:11;;;;;;;14.23;4.22;;;22.50;99.90;;;;;;5059638;28;20397;-66
2022/06/09 11:21:10;;;;;;;9.20;3.25;;;22.50;98.00;;;;;;5065583;28;21301;-66
2022/06/09 11:23:56;;;;;;;15.75;4.10;;;22.30;94.10;;;;;;5063689;28;20051;-66
2022/06/09 11:27:13;;;;;;;16.37;5.30;;;22.10;99.90;;;;;;5067902;28;20044;-66
2022/06/09 11:29:40;;;;;;;8.80;3.95;;;21.90;99.90;;;;;;5015217;28;20302;-66
2022/06/09 11:32:19;;;;;;;12.45;4.75;;;21.90;99.90;;;;;;5055311;28;20053;-68
2022/06/09 11:35:09;;;;;;;8.85;4.15;;;22.10;99.90;;;;;;5061916;28;20041;-68
2022/06/09 11:37:44;;;;;;;6.20;3.97;;;22.10;99.90;;;;;;5059899;28;20040;-68
2022/06/09 11:40:18;;;;;;;11.13;4.70;;;21.80;99.90;;;;;;5055340;28;20048;-67
2022/06/09 11:43:05;;;;;;;7.15;4.00;;;21.80;99.90;;;;;;5066334;28;20044;-67
2022/06/09 11:45:38;;;;;;;10.63;5.40;;;21.90;99.90;;;;;;5062305;28;20076;-67
2022/06/09 11:48:09;;;;;;;9.00;4.18;;;22.10;99.90;;;;;;5059431;28;20520;-67
2022/06/09 11:50:40;;;;;;;5.72;4.07;;;22.20;99.90;;;;;;5063085;28;20036;-67
2022/06/09 11:53:06;;;;;;;9.20;3.83;;;22.10;99.90;;;;;;5064733;28;20068;-67
2022/06/09 11:58:38;;;;;;;8.45;3.83;;;22.10;99.90;;;;;;5061187;28;20057;-67
2022/06/09 12:01:31;;;;;;;5.78;3.53;;;22.10;99.90;;;;;;5059627;28;20037;-67
2022/06/09 12:04:07;;;;;;;7.93;3.58;;;22.30;99.90;;;;;;5057794;28;20404;-67
2022/06/09 12:06:32;;;;;;;14.50;3.65;;;22.40;99.90;;;;;;5053817;28;20052;-67
2022/06/09 12:09:04;;;;;;;6.28;3.10;;;22.20;99.90;;;;;;5061023;28;20037;-67
2022/06/09 12:11:52;;;;;;;5.07;2.72;;;22.00;99.90;;;;;;5059018;28;20921;-68
2022/06/09 12:14:26;;;;;;;9.93;3.78;;;21.90;99.90;;;;;;5058234;28;20409;-68
2022/06/09 12:17:30;;;;;;;11.43;4.32;;;22.10;99.90;;;;;;5058217;28;20097;-67
2022/06/09 12:20:04;;;;;;;7.68;3.35;;;22.20;99.90;;;;;;5060850;28;20048;-68
2022/06/09 12:22:39;;;;;;;14.30;3.80;;;22.40;99.90;;;;;;5054263;28;20056;-68
2022/06/09 12:25:08;;;;;;;8.35;3.58;;;22.60;99.90;;;;;;5055482;28;20044;-68
2022/06/09 12:27:42;;;;;;;5.85;3.50;;;22.80;99.90;;;;;;5063768;28;20075;-68
2022/06/09 12:30:37;;;;;;;11.13;3.70;;;22.80;99.90;;;;;;5061708;28;20045;-67
2022/06/09 12:33:15;;;;;;;16.10;4.22;;;22.80;99.90;;;;;;5062914;28;20036;-68
2022/06/09 12:35:56;;;;;;;11.68;3.78;;;22.70;99.90;;;;;;5061122;28;20056;-68
2022/06/09 12:38:30;;;;;;;9.13;3.67;;;22.70;94.10;;;;;;5064029;28;20045;-67
2022/06/09 12:41:02;;;;;;;10.38;3.60;;;22.80;97.70;;;;;;5057806;28;20045;-67
2022/06/09 12:43:42;;;;;;;11.55;3.58;;;22.90;99.90;;;;;;5064886;28;20137;-67
2022/06/09 12:46:27;;;;;;;11.38;3.58;;;22.70;91.70;;;;;;5066016;28;20068;-67
2022/06/09 12:48:54;;;;;;;6.18;4.07;;;22.70;90.30;;;;;;5049886;28;20073;-67
2022/06/09 12:51:22;;;;;;;10.18;3.58;;;22.70;97.30;;;;;;5051039;28;20123;-67
2022/06/09 12:54:04;;;;;;;15.25;4.35;;;22.80;95.50;;;;;;5054465;28;20092;-67
2022/06/09 12:56:41;;;;;;;11.40;4.07;;;22.80;94.80;;;;;;5058936;28;20112;-67
2022/06/09 12:59:28;;;;;;;10.68;4.15;;;22.80;95.00;;;;;;5053781;28;20460;-67
2022/06/09 13:02:01;;;;;;;8.35;4.15;;;22.80;99.30;;;;;;5064815;28;20040;-67
2022/06/09 13:04:29;;;;;;;14.43;4.10;;;22.80;99.90;;;;;;5057344;28;20044;-68
2022/06/09 13:06:56;;;;;;;11.45;3.13;;;22.90;94.40;;;;;;5059166;28;20048;-67
2022/06/09 13:09:33;;;;;;;10.40;3.45;;;22.70;91.90;;;;;;5064267;28;20040;-67
2022/06/09 13:15:05;;;;;;;4.20;2.50;;;22.70;95.10;;;;;;5062868;28;20186;-67
2022/06/09 13:17:37;;;;;;;7.88;3.45;;;22.80;82.70;;;;;;5064544;28;20044;-67
2022/06/09 13:20:11;;;;;;;7.80;3.90;;;22.90;89.20;;;;;;5060242;28;20067;-68
2022/06/09 13:22:37;;;;;;;6.38;2.95;;;23.00;89.30;;;;;;5056692;28;20052;-67